Time;durP1;ratioP1;P1;durP2;ratioP2;P2;SDS_P1;SDS_P2;PMS_P1;PMS_P2;Temp;Humidity;BMP_temperature;BMP_pressure;BME280_temperature;BME280_humidity;BME280_pressure;Samples;Min_cycle;Max_cycle;Signal;HPM_P1;HPM_P2
2023/02/12 00:03:00;;;;;;;10.90;3.47;;;;;;;7.76;100.00;103324.53;6253319;28;20053;-84
2023/02/12 00:06:02;;;;;;;12.80;3.55;;;;;;;7.80;100.00;103324.53;6253346;28;20064;-83
2023/02/12 00:09:03;;;;;;;20.05;4.00;;;;;;;7.77;100.00;103329.78;6253633;28;20056;-83
2023/02/12 00:12:06;;;;;;;11.48;3.72;;;;;;;7.76;100.00;103332.38;6253361;28;20053;-84
2023/02/12 00:15:08;;;;;;;10.50;3.45;;;;;;;7.71;100.00;103323.66;6253709;28;20056;-84
2023/02/12 00:18:10;;;;;;;8.32;3.50;;;;;;;7.65;100.00;103321.94;6253865;28;20061;-84
2023/02/12 00:21:12;;;;;;;6.82;3.33;;;;;;;7.60;100.00;103331.53;6253682;28;20057;-85
2023/02/12 00:24:14;;;;;;;7.10;3.72;;;;;;;7.66;100.00;103338.50;6252898;28;20452;-85
2023/02/12 00:27:16;;;;;;;13.35;4.35;;;;;;;7.62;100.00;103345.47;6252890;28;20053;-83
2023/02/12 00:30:18;;;;;;;6.43;3.75;;;;;;;7.61;100.00;103336.75;6261215;28;20041;-84
2023/02/12 00:33:19;;;;;;;9.45;4.30;;;;;;;7.62;100.00;103345.47;6252828;28;20045;-84
2023/02/12 00:36:23;;;;;;;10.82;4.38;;;;;;;7.59;100.00;103340.25;6252504;28;20044;-84
2023/02/12 00:39:24;;;;;;;12.85;4.05;;;;;;;7.57;100.00;103349.84;6252846;28;20042;-85
2023/02/12 00:42:27;;;;;;;10.95;3.95;;;;;;;7.55;100.00;103349.84;6251904;28;20080;-87
2023/02/12 00:45:28;;;;;;;10.30;4.68;;;;;;;7.57;100.00;103355.06;6252303;28;20060;-83
2023/02/12 00:48:29;;;;;;;12.90;4.25;;;;;;;7.60;100.00;103360.31;6252477;28;20050;-84
2023/02/12 00:51:31;;;;;;;14.30;4.38;;;;;;;7.58;100.00;103359.41;6252105;28;20068;-84
2023/02/12 00:54:32;;;;;;;16.15;5.28;;;;;;;7.53;100.00;103358.53;6252579;28;20048;-84
2023/02/12 00:57:35;;;;;;;11.93;4.82;;;;;;;7.49;100.00;103359.41;6252180;28;20056;-83
2023/02/12 01:00:36;;;;;;;16.85;3.58;;;;;;;7.46;100.00;103362.91;6251920;28;20068;-83
2023/02/12 01:03:38;;;;;;;9.65;4.50;;;;;;;7.43;100.00;103368.13;6251758;28;20379;-83
2023/02/12 01:06:39;;;;;;;8.80;4.72;;;;;;;7.36;100.00;103359.41;6252134;28;20179;-84
2023/02/12 01:09:41;;;;;;;14.38;5.22;;;;;;;7.33;100.00;103358.53;6251670;28;20057;-83
2023/02/12 01:12:43;;;;;;;8.13;3.45;;;;;;;7.34;100.00;103366.38;6251630;28;20353;-85
2023/02/12 01:15:45;;;;;;;16.83;5.07;;;;;;;7.30;100.00;103363.75;6251785;28;20079;-83
2023/02/12 01:18:47;;;;;;;17.50;5.25;;;;;;;7.30;100.00;103368.97;6243644;28;20041;-82
2023/02/12 01:21:48;;;;;;;17.48;4.57;;;;;;;7.21;100.00;103368.94;6251770;28;20365;-84
2023/02/12 01:24:50;;;;;;;19.38;5.90;;;;;;;7.15;100.00;103375.03;6249896;28;20048;-84
2023/02/12 01:27:54;;;;;;;15.07;5.25;;;;;;;7.13;100.00;103379.41;6251317;28;20056;-84
2023/02/12 01:30:55;;;;;;;15.18;4.75;;;;;;;7.12;100.00;103382.84;6251856;28;20053;-83
2023/02/12 01:33:58;;;;;;;22.83;4.80;;;;;;;7.11;100.00;103381.13;6251632;28;20060;-84
2023/02/12 01:37:00;;;;;;;13.63;4.90;;;;;;;7.10;100.00;103379.38;6251136;28;20049;-84
2023/02/12 01:40:01;;;;;;;12.57;4.88;;;;;;;7.10;100.00;103380.25;6251331;28;20046;-84
2023/02/12 01:43:06;;;;;;;13.68;4.57;;;;;;;7.05;100.00;103384.59;6251305;28;20458;-83
2023/02/12 01:46:11;;;;;;;8.85;3.95;;;;;;;7.06;100.00;103380.22;6251167;28;20052;-84
2023/02/12 01:49:19;;;;;;;8.30;4.80;;;;;;;7.02;100.00;103381.09;6251420;28;20046;-84
2023/02/12 01:52:24;;;;;;;10.48;4.28;;;;;;;7.03;100.00;103381.09;6251086;28;20060;-84
2023/02/12 01:55:26;;;;;;;10.48;5.18;;;;;;;7.02;100.00;103384.56;6251196;28;20052;-85
2023/02/12 01:58:34;;;;;;;17.40;5.68;;;;;;;6.99;100.00;103394.13;6251377;28;20061;-84
2023/02/12 02:01:36;;;;;;;14.85;6.22;;;;;;;7.00;100.00;103399.41;6250986;28;20167;-85
2023/02/12 02:04:43;;;;;;;10.30;5.07;;;;;;;6.99;100.00;103383.69;6251316;28;20057;-85
2023/02/12 02:07:45;;;;;;;13.38;5.03;;;;;;;7.04;100.00;103393.31;6250636;28;20060;-83
2023/02/12 02:10:46;;;;;;;18.73;4.63;;;;;;;7.00;100.00;103382.84;6231221;28;20049;-85
2023/02/12 02:17:34;;;;;;;8.10;3.95;;;;;;;7.01;100.00;103387.19;6250726;28;20085;-84
2023/02/12 02:21:08;;;;;;;11.13;4.53;;;;;;;6.99;100.00;103388.91;6250522;28;20037;-77
2023/02/12 02:24:23;;;;;;;8.23;4.32;;;;;;;7.01;100.00;103384.56;6250269;28;20565;-77
2023/02/12 02:27:35;;;;;;;8.85;4.28;;;;;;;7.03;100.00;103380.22;6250102;28;20045;-77
2023/02/12 02:30:44;;;;;;;19.65;4.20;;;;;;;6.96;100.00;103378.47;6250514;28;20048;-77
2023/02/12 02:33:55;;;;;;;8.57;4.78;;;;;;;6.89;100.00;103382.78;6250214;28;20180;-77
2023/02/12 02:37:04;;;;;;;7.53;3.80;;;;;;;6.88;100.00;103377.56;6249818;28;20049;-77
2023/02/12 02:40:12;;;;;;;9.10;4.27;;;;;;;6.93;100.00;103379.31;6249587;28;20052;-77
2023/02/12 02:43:18;;;;;;;8.00;3.93;;;;;;;6.85;100.00;103379.25;6250210;28;20049;-78
2023/02/12 02:46:27;;;;;;;10.68;4.38;;;;;;;6.90;100.00;103376.66;6249831;28;20056;-77
2023/02/12 02:49:35;;;;;;;18.73;4.65;;;;;;;6.90;100.00;103373.19;6250287;28;20038;-78
2023/02/12 02:52:41;;;;;;;13.65;3.67;;;;;;;6.87;100.00;103368.84;6249972;28;20053;-78
2023/02/12 02:55:48;;;;;;;13.65;5.03;;;;;;;6.83;100.00;103370.56;6249873;28;20045;-77
2023/02/12 02:58:55;;;;;;;10.32;4.95;;;;;;;6.82;100.00;103373.19;6249670;28;20052;-78
2023/02/12 03:02:03;;;;;;;16.60;4.68;;;;;;;6.82;100.00;103368.81;6250130;28;20053;-78
2023/02/12 03:05:09;;;;;;;13.35;4.72;;;;;;;6.85;100.00;103376.66;6255284;28;20057;-77
2023/02/12 03:08:14;;;;;;;14.80;4.55;;;;;;;6.86;100.00;103378.41;6245309;28;20049;-78
2023/02/12 03:11:22;;;;;;;11.45;4.32;;;;;;;6.85;100.00;103378.38;6254328;28;20352;-77
2023/02/12 03:14:29;;;;;;;10.75;5.35;;;;;;;6.82;100.00;103368.81;6254546;28;20045;-78
2023/02/12 03:17:35;;;;;;;8.90;4.80;;;;;;;6.92;100.00;103379.31;6252940;28;20338;-78
2023/02/12 03:20:43;;;;;;;12.07;4.25;;;;;;;6.86;100.00;103374.94;6254355;28;20045;-77
2023/02/12 03:23:51;;;;;;;14.25;6.07;;;;;;;6.86;100.00;103388.00;6246127;28;20482;-77
2023/02/12 03:26:59;;;;;;;11.73;5.53;;;;;;;6.86;100.00;103393.22;6246502;28;20573;-78
2023/02/12 03:30:02;;;;;;;12.60;4.90;;;;;;;6.83;100.00;103399.31;6254186;28;20049;-78
2023/02/12 03:33:16;;;;;;;14.13;5.22;;;;;;;6.85;100.00;103391.47;6254075;28;20459;-77
2023/02/12 03:36:26;;;;;;;14.57;5.60;;;;;;;6.84;100.00;103394.94;6253730;28;20053;-78
2023/02/12 03:39:33;;;;;;;13.63;5.32;;;;;;;6.83;100.00;103396.69;6251367;28;20322;-78
2023/02/12 03:42:39;;;;;;;24.10;6.30;;;;;;;6.81;100.00;103397.53;6253682;28;20050;-78
2023/02/12 03:45:44;;;;;;;14.05;5.47;;;;;;;6.78;100.00;103406.25;6253079;28;20045;-78
2023/02/12 03:48:56;;;;;;;17.50;6.05;;;;;;;6.76;100.00;103399.25;6245389;28;20104;-78
2023/02/12 03:51:58;;;;;;;13.45;5.75;;;;;;;6.75;100.00;103402.75;6253828;28;20060;-78
2023/02/12 03:55:00;;;;;;;16.52;5.65;;;;;;;6.77;100.00;103408.88;6253341;28;20085;-77
2023/02/12 03:58:03;;;;;;;14.05;5.55;;;;;;;6.75;100.00;103406.22;6253304;28;20057;-78
2023/02/12 04:01:05;;;;;;;12.07;5.45;;;;;;;6.80;100.00;103411.47;6253367;28;20060;-77
2023/02/12 04:04:10;;;;;;;10.45;5.00;;;;;;;6.84;100.00;103402.78;6239965;28;20048;-78
2023/02/12 04:07:13;;;;;;;16.20;5.80;;;;;;;6.84;100.00;103418.47;6232533;28;20501;-78
2023/02/12 04:10:15;;;;;;;16.35;5.60;;;;;;;6.84;100.00;103418.47;6232045;28;20044;-78
2023/02/12 04:13:21;;;;;;;16.15;6.03;;;;;;;6.83;100.00;103424.56;6232600;28;20041;-78
2023/02/12 04:16:28;;;;;;;12.02;5.70;;;;;;;6.82;100.00;103425.44;6231680;28;20057;-78
2023/02/12 04:19:40;;;;;;;20.10;6.72;;;;;;;6.80;100.00;103421.94;6232976;28;20053;-78
2023/02/12 04:22:53;;;;;;;16.60;6.55;;;;;;;6.82;100.00;103425.44;6233037;28;20049;-78
2023/02/12 04:26:09;;;;;;;16.98;5.68;;;;;;;6.80;100.00;103428.03;6233527;28;20057;-77
2023/02/12 04:29:21;;;;;;;23.80;6.25;;;;;;;6.86;100.00;103422.00;6231736;28;20045;-78
2023/02/12 04:32:31;;;;;;;12.77;5.97;;;;;;;6.80;100.00;103428.03;6232818;28;20048;-78
2023/02/12 04:35:36;;;;;;;14.60;5.65;;;;;;;6.80;100.00;103429.78;6231612;28;20045;-78
2023/02/12 04:38:43;;;;;;;9.57;5.00;;;;;;;6.82;100.00;103430.69;6232952;28;20044;-78
2023/02/12 04:41:44;;;;;;;15.05;5.65;;;;;;;6.82;100.00;103433.28;6232324;28;20569;-78
2023/02/12 04:44:46;;;;;;;9.77;5.18;;;;;;;6.85;100.00;103438.50;6233202;28;20052;-78
2023/02/12 04:47:47;;;;;;;14.32;5.50;;;;;;;6.86;100.00;103438.53;6232912;28;20437;-77
2023/02/12 04:50:50;;;;;;;11.90;5.68;;;;;;;6.82;100.00;103428.06;6231906;28;20048;-77
2023/02/12 04:53:51;;;;;;;20.77;6.28;;;;;;;6.82;100.00;103430.69;6232289;28;20048;-78
2023/02/12 04:56:52;;;;;;;10.05;4.93;;;;;;;6.84;100.00;103429.78;6231425;28;20046;-77
2023/02/12 04:59:54;;;;;;;15.43;5.40;;;;;;;6.81;100.00;103439.34;6230042;28;20045;-78
2023/02/12 05:02:55;;;;;;;12.40;6.03;;;;;;;6.75;100.00;103434.97;6234434;28;20056;-78
2023/02/12 05:06:02;;;;;;;13.43;5.97;;;;;;;6.83;100.00;103442.88;6251715;28;20057;-78
2023/02/12 05:09:04;;;;;;;11.27;5.03;;;;;;;6.80;100.00;103442.84;6251931;28;20052;-78
2023/02/12 05:12:06;;;;;;;14.27;5.90;;;;;;;6.82;100.00;103436.78;6251208;28;20061;-78
2023/02/12 05:15:08;;;;;;;13.75;6.47;;;;;;;6.78;100.00;103439.34;6251669;28;20057;-78
2023/02/12 05:18:10;;;;;;;17.50;6.88;;;;;;;6.77;100.00;103443.72;6251718;28;20045;-78
2023/02/12 05:21:13;;;;;;;16.15;7.47;;;;;;;6.79;100.00;103441.97;6251458;28;20048;-78
2023/02/12 05:24:14;;;;;;;16.63;5.97;;;;;;;6.80;100.00;103446.31;6251382;28;20056;-78
2023/02/12 05:27:15;;;;;;;17.75;6.90;;;;;;;6.79;100.00;103443.72;6251134;28;20045;-78
2023/02/12 05:30:17;;;;;;;23.58;6.70;;;;;;;6.76;100.00;103441.06;6251511;28;20037;-78
2023/02/12 05:33:18;;;;;;;15.60;7.35;;;;;;;6.73;100.00;103436.72;6250951;28;20049;-78
2023/02/12 05:36:23;;;;;;;18.13;5.78;;;;;;;6.76;100.00;103434.09;6251037;28;20041;-78
2023/02/12 05:39:25;;;;;;;19.50;7.45;;;;;;;6.81;100.00;103441.97;6250792;28;20045;-77
2023/02/12 05:42:26;;;;;;;18.25;6.78;;;;;;;6.88;100.00;103442.91;6251012;28;20318;-77
2023/02/12 05:45:28;;;;;;;19.23;7.03;;;;;;;6.81;100.00;103450.72;6250858;28;20052;-78
2023/02/12 05:48:32;;;;;;;25.55;9.07;;;;;;;6.80;100.00;103451.56;6251241;28;20061;-78
2023/02/12 05:51:35;;;;;;;22.10;8.75;;;;;;;6.77;100.00;103445.47;6250596;28;20049;-77
2023/02/12 05:54:36;;;;;;;26.85;8.43;;;;;;;6.73;100.00;103447.16;6250861;28;20357;-78
2023/02/12 05:57:37;;;;;;;27.48;9.38;;;;;;;6.72;100.00;103448.03;6250685;28;20045;-78
2023/02/12 06:00:39;;;;;;;18.60;7.53;;;;;;;6.73;100.00;103448.91;6250863;28;20041;-78
2023/02/12 06:03:40;;;;;;;23.80;9.57;;;;;;;6.75;100.00;103455.88;6250637;28;20045;-77
2023/02/12 06:06:43;;;;;;;28.38;7.95;;;;;;;6.78;100.00;103455.91;6250502;28;20152;-78
2023/02/12 06:09:45;;;;;;;28.60;9.48;;;;;;;6.81;100.00;103457.66;6250177;28;20057;-78
2023/02/12 06:12:46;;;;;;;28.83;9.73;;;;;;;6.80;100.00;103456.78;6242195;28;20108;-78
2023/02/12 06:15:47;;;;;;;27.75;9.02;;;;;;;6.78;100.00;103458.53;6250600;28;20060;-78
2023/02/12 06:18:49;;;;;;;26.77;9.40;;;;;;;6.80;100.00;103466.38;6250475;28;20056;-78
2023/02/12 06:21:52;;;;;;;27.35;8.98;;;;;;;6.81;100.00;103471.63;6250433;28;20046;-78
2023/02/12 06:24:53;;;;;;;27.40;8.27;;;;;;;6.84;100.00;103470.75;6250199;28;20353;-77
2023/02/12 06:27:54;;;;;;;25.17;8.23;;;;;;;6.79;100.00;103469.84;6250274;28;20056;-78
2023/02/12 06:30:56;;;;;;;23.00;7.93;;;;;;;6.75;100.00;103475.91;6250259;28;20050;-78
2023/02/12 06:34:00;;;;;;;30.45;7.72;;;;;;;6.77;100.00;103488.16;6250243;28;20045;-77
2023/02/12 06:37:02;;;;;;;16.05;7.07;;;;;;;6.71;100.00;103492.44;6249838;28;20050;-77
2023/02/12 06:40:05;;;;;;;18.70;7.63;;;;;;;6.67;100.00;103491.53;6252392;28;20067;-77
2023/02/12 06:43:06;;;;;;;19.15;7.45;;;;;;;6.69;100.00;103488.94;6254612;28;20353;-78
2023/02/12 06:46:08;;;;;;;23.73;7.30;;;;;;;6.65;100.00;103487.19;6255067;28;20334;-77
2023/02/12 06:49:13;;;;;;;23.77;7.50;;;;;;;6.64;100.00;103493.28;6254976;28;20041;-77
2023/02/12 06:52:15;;;;;;;19.38;7.50;;;;;;;6.62;100.00;103503.69;6255230;28;20064;-77
2023/02/12 06:55:17;;;;;;;25.17;10.18;;;;;;;6.62;100.00;103495.84;6255055;28;20057;-78
2023/02/12 06:58:18;;;;;;;30.65;9.32;;;;;;;6.59;100.00;103504.56;6254578;28;20045;-78
2023/02/12 07:01:21;;;;;;;21.17;7.22;;;;;;;6.59;100.00;103501.09;6254872;28;20045;-78
2023/02/12 07:04:23;;;;;;;18.40;7.22;;;;;;;6.56;100.00;103501.03;6254470;28;20052;-78
2023/02/12 07:07:25;;;;;;;26.88;7.40;;;;;;;6.53;100.00;103508.84;6254199;28;20053;-78
2023/02/12 07:10:27;;;;;;;25.13;7.60;;;;;;;6.53;100.00;103509.72;6253541;28;20398;-78
2023/02/12 07:13:28;;;;;;;22.23;7.43;;;;;;;6.54;100.00;103514.09;6254008;28;20052;-78
2023/02/12 07:16:29;;;;;;;21.23;8.07;;;;;;;6.55;100.00;103508.00;6253713;28;20041;-78
2023/02/12 07:19:31;;;;;;;17.27;6.95;;;;;;;6.56;100.00;103507.16;6253913;28;20056;-78
2023/02/12 07:22:36;;;;;;;31.17;9.20;;;;;;;6.58;100.00;103512.38;6253686;28;20340;-78
2023/02/12 07:25:38;;;;;;;28.75;8.77;;;;;;;6.55;100.00;103512.38;6253508;28;20172;-78
2023/02/12 07:28:40;;;;;;;19.08;7.72;;;;;;;6.53;100.00;103519.28;6253694;28;20053;-79
2023/02/12 07:31:41;;;;;;;25.05;8.07;;;;;;;6.53;100.00;103514.06;6253710;28;20045;-78
2023/02/12 07:34:42;;;;;;;32.53;9.38;;;;;;;6.52;100.00;103517.56;6253486;28;20050;-78
2023/02/12 07:37:45;;;;;;;19.48;7.47;;;;;;;6.51;100.00;103521.03;6253142;28;20357;-78
2023/02/12 07:40:47;;;;;;;19.63;7.03;;;;;;;6.63;100.00;103523.72;6250584;28;20042;-78
2023/02/12 07:43:52;;;;;;;27.52;8.70;;;;;;;6.65;100.00;103519.41;6254410;28;20349;-85
2023/02/12 07:46:54;;;;;;;23.65;8.05;;;;;;;6.72;100.00;103526.44;6253754;28;20049;-83
2023/02/12 07:49:55;;;;;;;30.27;9.02;;;;;;;6.73;100.00;103533.41;6253785;28;20049;-87
2023/02/12 07:52:58;;;;;;;26.13;8.43;;;;;;;6.72;100.00;103533.38;6254633;28;20556;-85
2023/02/12 07:56:07;;;;;;;35.42;9.88;;;;;;;6.68;100.00;103532.50;6254064;28;20061;-84
2023/02/12 07:59:10;;;;;;;;;;;;;;;6.71;100.00;103532.50;6254340;28;20045;-84
2023/02/12 08:02:11;;;;;;;36.50;9.05;;;;;;;6.67;100.00;103537.69;6253455;28;19936;-84
2023/02/12 08:05:12;;;;;;;36.45;10.70;;;;;;;6.61;100.00;103536.78;6253359;28;20041;-84
2023/02/12 08:08:15;;;;;;;41.92;9.65;;;;;;;6.63;100.00;103534.19;6253565;28;20381;-84
2023/02/12 08:11:17;;;;;;;27.83;10.13;;;;;;;6.66;100.00;103533.34;6253161;28;20050;-86
2023/02/12 08:14:21;;;;;;;35.58;10.40;;;;;;;6.63;100.00;103538.53;6254128;28;20057;-85
2023/02/12 08:17:22;;;;;;;23.85;7.97;;;;;;;6.70;100.00;103541.22;6253743;28;20052;-84
2023/02/12 08:20:24;;;;;;;26.48;10.35;;;;;;;6.70;100.00;103537.72;6253460;28;20476;-84
2023/02/12 08:23:26;;;;;;;31.13;9.88;;;;;;;6.74;100.00;103552.56;6254054;28;20054;-85
2023/02/12 08:26:29;;;;;;;35.92;10.35;;;;;;;6.74;100.00;103550.84;6252966;28;20058;-83
2023/02/12 08:29:31;;;;;;;29.13;9.13;;;;;;;6.73;100.00;103561.28;6253257;28;20314;-83
2023/02/12 08:32:32;;;;;;;29.35;9.13;;;;;;;6.68;100.00;103552.53;6253415;28;20046;-83
2023/02/12 08:35:33;;;;;;;32.88;7.78;;;;;;;6.73;100.00;103561.28;6252765;28;20049;-83
2023/02/12 08:38:37;;;;;;;25.48;9.00;;;;;;;6.76;100.00;103559.53;6252873;28;20048;-83
2023/02/12 08:41:41;;;;;;;25.83;8.65;;;;;;;6.77;100.00;103558.72;6252499;28;20044;-83
2023/02/12 08:44:42;;;;;;;26.02;9.30;;;;;;;6.78;100.00;103576.13;6252753;28;20053;-83
2023/02/12 08:47:44;;;;;;;22.10;8.43;;;;;;;6.81;100.00;103565.72;6252586;28;20049;-84
2023/02/12 08:50:45;;;;;;;22.20;8.55;;;;;;;6.85;100.00;103577.03;6252827;28;20050;-83
2023/02/12 08:53:51;;;;;;;23.40;8.10;;;;;;;6.91;100.00;103571.00;6244816;28;20049;-84
2023/02/12 08:56:55;;;;;;;20.77;9.00;;;;;;;6.94;100.00;103578.84;6252326;28;20464;-83
2023/02/12 08:59:56;;;;;;;24.05;8.25;;;;;;;6.89;100.00;103577.94;6252702;28;20132;-84
2023/02/12 09:02:58;;;;;;;22.42;8.85;;;;;;;6.98;100.00;103578.00;6251253;28;20349;-84
2023/02/12 09:06:02;;;;;;;20.90;8.18;;;;;;;6.89;100.00;103580.56;6252100;28;20053;-87
2023/02/12 09:09:06;;;;;;;28.00;8.85;;;;;;;6.97;100.00;103578.88;6252626;28;20053;-84
2023/02/12 09:12:07;;;;;;;29.92;8.27;;;;;;;6.97;100.00;103591.97;6252228;28;20103;-84
2023/02/12 09:15:09;;;;;;;21.33;7.97;;;;;;;7.02;100.00;103595.47;6251807;28;20080;-83
2023/02/12 09:18:10;;;;;;;20.42;7.72;;;;;;;7.08;100.00;103588.53;6251897;28;20052;-83
2023/02/12 09:21:15;;;;;;;16.98;6.15;;;;;;;7.10;100.00;103592.06;6249169;28;20049;-83
2023/02/12 09:24:18;;;;;;;15.00;5.85;;;;;;;7.18;100.00;103607.81;6247808;28;20140;-84
2023/02/12 09:27:19;;;;;;;18.92;7.18;;;;;;;7.14;100.00;103602.56;6259687;28;20057;-84
2023/02/12 09:30:21;;;;;;;22.92;7.93;;;;;;;7.21;100.00;103596.47;6247297;28;20135;-82
2023/02/12 09:33:23;;;;;;;25.45;8.18;;;;;;;7.16;100.00;103600.81;6250850;28;20045;-83
2023/02/12 09:36:24;;;;;;;17.45;6.95;;;;;;;7.15;100.00;103599.94;6248221;28;20045;-83
2023/02/12 09:39:29;;;;;;;19.65;7.72;;;;;;;7.14;100.00;103599.94;6253825;28;20128;-84
2023/02/12 09:42:45;;;;;;;28.38;8.88;;;;;;;7.15;100.00;103599.06;6253153;28;20052;-84
2023/02/12 09:45:55;;;;;;;27.15;8.20;;;;;;;7.18;100.00;103610.44;6243297;28;20103;-84
2023/02/12 09:49:07;;;;;;;22.20;7.43;;;;;;;7.22;100.00;103608.69;6251314;28;20049;-84
2023/02/12 09:52:15;;;;;;;18.17;7.47;;;;;;;7.27;100.00;103607.00;6251295;28;20041;-84
2023/02/12 09:55:19;;;;;;;24.75;7.47;;;;;;;7.33;100.00;103607.91;6250784;28;20037;-84
2023/02/12 09:58:29;;;;;;;16.75;6.93;;;;;;;7.37;100.00;103616.66;6256253;28;20045;-84
2023/02/12 10:01:30;;;;;;;;;;;;;;;7.44;100.00;103613.19;6251181;28;20044;-84
2023/02/12 10:04:31;;;;;;;22.10;7.55;;;;;;;7.44;100.00;103618.41;6251010;28;19941;-83
2023/02/12 10:07:53;;;;;;;13.73;6.55;;;;;;;7.47;100.00;103612.34;6251043;28;20045;-83
2023/02/12 10:11:08;;;;;;;18.90;7.78;;;;;;;7.47;100.00;103622.81;6248483;28;20060;-84
2023/02/12 10:14:29;;;;;;;16.42;8.27;;;;;;;7.48;100.00;103627.16;6261135;28;20053;-83
2023/02/12 10:17:41;;;;;;;18.65;7.45;;;;;;;7.53;100.00;103628.94;6251951;28;20045;-84
2023/02/12 10:20:58;;;;;;;18.42;6.80;;;;;;;7.47;100.00;103628.91;6225818;28;20327;-84
2023/02/12 10:24:22;;;;;;;14.40;5.85;;;;;;;7.47;100.00;103622.81;6250031;28;20053;-83
2023/02/12 10:27:36;;;;;;;20.73;6.72;;;;;;;7.49;100.00;103626.28;6238646;28;20045;-82
2023/02/12 10:30:44;;;;;;;15.95;6.30;;;;;;;7.52;100.00;103619.34;6249452;28;20048;-83
2023/02/12 10:33:47;;;;;;;18.38;6.47;;;;;;;7.50;100.00;103620.22;6250468;28;20049;-82
2023/02/12 10:36:51;;;;;;;15.88;5.78;;;;;;;7.47;100.00;103620.19;6248027;28;20128;-83
2023/02/12 10:39:58;;;;;;;11.70;5.30;;;;;;;7.58;100.00;103619.38;6250278;28;20072;-83
2023/02/12 10:43:02;;;;;;;16.50;6.15;;;;;;;7.65;100.00;103619.41;6250001;28;20057;-82
2023/02/12 10:46:04;;;;;;;14.63;6.07;;;;;;;7.68;100.00;103617.69;6250184;28;20049;-82
2023/02/12 10:49:08;;;;;;;25.83;6.97;;;;;;;7.72;100.00;103615.94;6250146;28;20360;-82
2023/02/12 10:52:17;;;;;;;17.77;7.55;;;;;;;7.69;100.00;103616.81;6248558;28;20049;-83
2023/02/12 10:55:30;;;;;;;16.35;5.75;;;;;;;7.72;100.00;103611.63;6250213;28;20053;-84
2023/02/12 10:58:32;;;;;;;11.82;5.63;;;;;;;7.74;100.00;103612.47;6249959;28;20072;-83
2023/02/12 11:01:38;;;;;;;16.10;5.80;;;;;;;7.67;100.00;103610.69;6250149;28;20042;-82
2023/02/12 11:04:39;;;;;;;14.95;5.95;;;;;;;7.75;100.00;103616.84;6250155;28;20045;-82
2023/02/12 11:07:47;;;;;;;15.48;6.25;;;;;;;7.71;100.00;103611.59;6241501;28;20054;-83
2023/02/12 11:10:48;;;;;;;14.10;5.53;;;;;;;7.76;100.00;103610.72;6237235;28;20050;-83
2023/02/12 11:13:57;;;;;;;11.02;5.50;;;;;;;7.74;100.00;103604.63;6241916;28;20052;-83
2023/02/12 11:17:01;;;;;;;17.77;5.07;;;;;;;7.68;100.00;103602.00;6242126;28;20042;-83
2023/02/12 11:20:22;;;;;;;16.23;5.82;;;;;;;7.69;100.00;103598.50;6239845;28;20441;-84
2023/02/12 11:23:26;;;;;;;16.83;6.85;;;;;;;7.70;100.00;103600.25;6238486;28;20049;-83
2023/02/12 11:26:30;;;;;;;20.00;7.07;;;;;;;7.67;100.00;103599.34;6239605;28;20042;-84
2023/02/12 11:29:32;;;;;;;20.33;7.32;;;;;;;7.66;100.00;103595.84;6250889;28;20056;-84
2023/02/12 11:32:34;;;;;;;15.95;6.68;;;;;;;7.56;100.00;103588.84;6254684;28;20041;-83
2023/02/12 11:35:35;;;;;;;14.23;6.25;;;;;;;7.55;100.00;103592.34;6254821;28;20052;-84
2023/02/12 11:38:40;;;;;;;14.90;5.95;;;;;;;7.55;100.00;103595.81;6254614;28;20049;-85
2023/02/12 11:41:42;;;;;;;15.50;6.13;;;;;;;7.56;100.00;103592.31;6254334;28;20053;-85
2023/02/12 11:44:50;;;;;;;15.55;6.38;;;;;;;7.62;100.00;103588.84;6254638;28;20433;-84
2023/02/12 11:47:52;;;;;;;13.68;5.88;;;;;;;7.69;100.00;103595.00;6254036;28;20052;-84
2023/02/12 11:50:56;;;;;;;9.77;4.88;;;;;;;7.73;100.00;103587.19;6254723;28;20136;-85
2023/02/12 11:54:01;;;;;;;13.38;5.13;;;;;;;7.73;100.00;103583.69;6253812;28;20064;-84
2023/02/12 11:57:03;;;;;;;9.10;4.32;;;;;;;7.71;100.00;103588.91;6254332;28;20438;-85
2023/02/12 12:00:15;;;;;;;7.00;3.50;;;;;;;7.80;100.00;103586.31;6253953;28;20049;-84
2023/02/12 12:03:21;;;;;;;7.70;3.45;;;;;;;7.92;100.00;103579.41;6253546;28;20432;-84
2023/02/12 12:06:35;;;;;;;11.50;3.65;;;;;;;8.02;100.00;103574.19;6253847;28;20174;-83
2023/02/12 12:09:42;;;;;;;7.40;3.85;;;;;;;8.13;100.00;103571.59;6253619;28;20416;-85
2023/02/12 12:12:48;;;;;;;11.90;4.47;;;;;;;8.09;100.00;103562.00;6251777;28;20052;-84
2023/02/12 12:22:59;;;;;;;7.05;3.63;;;;;;;8.07;100.00;103561.97;6236685;28;20045;-84
2023/02/12 12:26:07;;;;;;;7.97;4.35;;;;;;;8.12;100.00;103551.50;6252189;28;20050;-84
2023/02/12 12:29:16;;;;;;;10.65;3.72;;;;;;;8.07;100.00;103554.09;6251839;28;20046;-85
2023/02/12 12:32:23;;;;;;;8.35;4.43;;;;;;;8.08;100.00;103554.97;6245883;28;20437;-85
2023/02/12 12:35:33;;;;;;;16.02;4.20;;;;;;;8.06;100.00;103557.59;6252602;28;20045;-85
2023/02/12 12:38:46;;;;;;;9.48;4.28;;;;;;;8.14;100.00;103549.78;6242345;28;20046;-83
2023/02/12 12:42:14;;;;;;;8.95;3.85;;;;;;;8.10;100.00;103554.13;6245915;28;20052;-83
2023/02/12 12:45:27;;;;;;;8.50;4.30;;;;;;;8.09;100.00;103547.16;6250584;28;20045;-86
2023/02/12 12:48:53;;;;;;;9.05;3.95;;;;;;;8.08;100.00;103545.41;6244809;28;20057;-85
2023/02/12 12:52:07;;;;;;;9.15;4.30;;;;;;;8.13;100.00;103545.41;6243859;28;20058;-85
2023/02/12 12:55:44;;;;;;;8.15;4.57;;;;;;;8.17;100.00;103536.66;6247205;28;20049;-85
2023/02/12 12:59:04;;;;;;;12.15;4.65;;;;;;;8.19;100.00;103534.06;6252365;28;20045;-84
2023/02/12 13:02:35;;;;;;;10.70;5.20;;;;;;;8.19;100.00;103532.31;6241257;28;20053;-81
2023/02/12 13:05:53;;;;;;;7.72;4.30;;;;;;;8.24;100.00;103521.84;6243411;28;20055;-80
2023/02/12 13:09:12;;;;;;;11.18;5.00;;;;;;;8.27;100.00;103524.47;6244957;28;20367;-81
2023/02/12 13:12:36;;;;;;;9.23;4.85;;;;;;;8.29;100.00;103513.09;6251453;28;20318;-80
2023/02/12 13:15:45;;;;;;;10.93;4.65;;;;;;;8.31;100.00;103518.34;6252698;28;20041;-80
2023/02/12 13:18:57;;;;;;;9.55;5.05;;;;;;;8.33;100.00;103519.22;6244033;28;20603;-80
2023/02/12 13:22:06;;;;;;;10.73;4.93;;;;;;;8.44;100.00;103519.25;6251365;28;20445;-80
2023/02/12 13:25:24;;;;;;;8.13;4.60;;;;;;;8.44;100.00;103512.25;6251630;28;20049;-80
2023/02/12 13:28:33;;;;;;;9.48;5.15;;;;;;;8.45;100.00;103513.13;6251438;28;20046;-80
2023/02/12 13:31:38;;;;;;;;;;;;;;;8.44;100.00;103514.00;6258570;28;20452;-80
2023/02/12 13:34:42;;;;;;;10.05;4.75;;;;;;;8.39;100.00;103517.50;6251137;28;20236;-80
2023/02/12 13:37:48;;;;;;;7.95;4.25;;;;;;;8.34;100.00;103510.50;6251107;28;20056;-80
2023/02/12 13:40:54;;;;;;;7.75;4.43;;;;;;;8.33;100.00;103511.38;6251738;28;20333;-81
2023/02/12 13:44:10;;;;;;;7.60;4.47;;;;;;;8.39;100.00;103511.41;6243817;28;20046;-80
2023/02/12 13:47:24;;;;;;;10.55;4.55;;;;;;;8.35;100.00;103502.63;6250531;28;20056;-79
2023/02/12 13:50:37;;;;;;;8.40;3.88;;;;;;;8.41;100.00;103509.66;6251034;28;20130;-79
2023/02/12 13:53:55;;;;;;;7.28;4.28;;;;;;;8.33;100.00;103508.75;6250716;28;20053;-80
2023/02/12 13:57:00;;;;;;;6.47;4.03;;;;;;;8.34;100.00;103513.97;6250413;28;20056;-79
2023/02/12 14:00:05;;;;;;;6.95;4.28;;;;;;;8.38;100.00;103512.28;6250910;28;20054;-79
2023/02/12 14:03:09;;;;;;;7.57;3.92;;;;;;;8.35;100.00;103509.59;6250466;28;20357;-80
2023/02/12 14:06:14;;;;;;;9.10;4.50;;;;;;;8.41;100.00;103514.03;6245042;28;20155;-80
2023/02/12 14:09:22;;;;;;;6.38;3.72;;;;;;;8.35;100.00;103507.00;6250264;28;20045;-80
2023/02/12 14:12:30;;;;;;;6.63;3.50;;;;;;;8.38;100.00;103507.91;6249851;28;20126;-80
2023/02/12 14:15:35;;;;;;;4.65;2.90;;;;;;;8.45;100.00;103506.19;6249984;28;20053;-80
2023/02/12 14:18:37;;;;;;;5.75;2.88;;;;;;;8.41;100.00;103503.56;6249987;28;20392;-79
2023/02/12 14:21:44;;;;;;;6.15;2.88;;;;;;;8.45;100.00;103514.03;6250098;28;20049;-78
2023/02/12 14:24:54;;;;;;;4.90;2.42;;;;;;;8.32;100.00;103515.75;6249296;28;20052;-77
2023/02/12 14:27:59;;;;;;;6.70;2.30;;;;;;;8.31;100.00;103519.25;6248743;28;20048;-77